sensor_id;sensor_type;location;lat;lon;timestamp;P1;durP1;ratioP1;P2;durP2;ratioP2
74291;SDS011;62687;55.738;37.516;2023-11-21T00:01:49;174.80;;;94.65;;
74291;SDS011;62687;55.738;37.516;2023-11-21T00:05:36;183.93;;;96.72;;
74291;SDS011;62687;55.738;37.516;2023-11-21T00:09:24;197.80;;;101.32;;
74291;SDS011;62687;55.738;37.516;2023-11-21T00:13:12;207.52;;;102.53;;
74291;SDS011;62687;55.738;37.516;2023-11-21T00:16:59;180.90;;;96.28;;
74291;SDS011;62687;55.738;37.516;2023-11-21T00:20:46;170.93;;;92.32;;
74291;SDS011;62687;55.738;37.516;2023-11-21T00:24:34;182.43;;;96.13;;
74291;SDS011;62687;55.738;37.516;2023-11-21T00:28:22;177.77;;;111.32;;
74291;SDS011;62687;55.738;37.516;2023-11-21T00:32:09;215.00;;;108.05;;
74291;SDS011;62687;55.738;37.516;2023-11-21T00:35:56;208.52;;;104.75;;
74291;SDS011;62687;55.738;37.516;2023-11-21T00:39:43;182.63;;;97.00;;
74291;SDS011;62687;55.738;37.516;2023-11-21T00:43:30;187.98;;;97.30;;
74291;SDS011;62687;55.738;37.516;2023-11-21T00:47:17;199.73;;;104.53;;
74291;SDS011;62687;55.738;37.516;2023-11-21T00:51:04;189.77;;;98.93;;
74291;SDS011;62687;55.738;37.516;2023-11-21T00:54:52;170.15;;;94.40;;
74291;SDS011;62687;55.738;37.516;2023-11-21T00:58:40;180.50;;;95.53;;
74291;SDS011;62687;55.738;37.516;2023-11-21T01:02:27;188.65;;;101.22;;
74291;SDS011;62687;55.738;37.516;2023-11-21T01:06:15;169.15;;;92.28;;
74291;SDS011;62687;55.738;37.516;2023-11-21T01:10:04;195.82;;;101.50;;
74291;SDS011;62687;55.738;37.516;2023-11-21T01:13:56;152.65;;;87.13;;
74291;SDS011;62687;55.738;37.516;2023-11-21T01:17:44;188.68;;;96.93;;
74291;SDS011;62687;55.738;37.516;2023-11-21T01:21:31;175.05;;;93.35;;
74291;SDS011;62687;55.738;37.516;2023-11-21T01:25:19;165.90;;;87.55;;
74291;SDS011;62687;55.738;37.516;2023-11-21T01:29:06;168.18;;;90.78;;
74291;SDS011;62687;55.738;37.516;2023-11-21T01:32:54;175.27;;;93.82;;
74291;SDS011;62687;55.738;37.516;2023-11-21T01:36:40;167.95;;;92.85;;
74291;SDS011;62687;55.738;37.516;2023-11-21T01:40:27;218.68;;;107.40;;
74291;SDS011;62687;55.738;37.516;2023-11-21T01:44:14;181.00;;;92.40;;
74291;SDS011;62687;55.738;37.516;2023-11-21T01:48:02;164.32;;;90.32;;
74291;SDS011;62687;55.738;37.516;2023-11-21T01:51:50;167.88;;;90.43;;
74291;SDS011;62687;55.738;37.516;2023-11-21T01:55:38;162.02;;;89.82;;
74291;SDS011;62687;55.738;37.516;2023-11-21T01:59:26;160.38;;;88.63;;
74291;SDS011;62687;55.738;37.516;2023-11-21T02:03:13;153.10;;;85.72;;
74291;SDS011;62687;55.738;37.516;2023-11-21T02:07:00;165.10;;;91.25;;
74291;SDS011;62687;55.738;37.516;2023-11-21T02:10:47;190.20;;;97.35;;
74291;SDS011;62687;55.738;37.516;2023-11-21T02:14:34;181.10;;;87.90;;
74291;SDS011;62687;55.738;37.516;2023-11-21T02:18:22;179.13;;;100.05;;
74291;SDS011;62687;55.738;37.516;2023-11-21T02:22:09;183.77;;;95.35;;
74291;SDS011;62687;55.738;37.516;2023-11-21T02:25:58;182.82;;;98.07;;
74291;SDS011;62687;55.738;37.516;2023-11-21T02:29:45;177.02;;;95.80;;
74291;SDS011;62687;55.738;37.516;2023-11-21T02:33:39;189.73;;;101.28;;
74291;SDS011;62687;55.738;37.516;2023-11-21T02:37:27;154.35;;;88.65;;
74291;SDS011;62687;55.738;37.516;2023-11-21T02:41:14;144.82;;;86.00;;
74291;SDS011;62687;55.738;37.516;2023-11-21T02:45:01;146.02;;;85.68;;
74291;SDS011;62687;55.738;37.516;2023-11-21T02:48:48;145.32;;;73.15;;
74291;SDS011;62687;55.738;37.516;2023-11-21T02:52:36;154.05;;;88.57;;
74291;SDS011;62687;55.738;37.516;2023-11-21T02:56:23;188.18;;;91.20;;
74291;SDS011;62687;55.738;37.516;2023-11-21T03:00:10;161.88;;;89.40;;
74291;SDS011;62687;55.738;37.516;2023-11-21T03:03:57;152.25;;;85.80;;
74291;SDS011;62687;55.738;37.516;2023-11-21T03:07:44;165.95;;;92.75;;
74291;SDS011;62687;55.738;37.516;2023-11-21T03:11:31;130.40;;;77.93;;
74291;SDS011;62687;55.738;37.516;2023-11-21T03:15:18;161.85;;;87.45;;
74291;SDS011;62687;55.738;37.516;2023-11-21T03:19:05;156.18;;;84.30;;
74291;SDS011;62687;55.738;37.516;2023-11-21T03:22:54;154.40;;;86.85;;
74291;SDS011;62687;55.738;37.516;2023-11-21T03:26:41;166.45;;;92.15;;
74291;SDS011;62687;55.738;37.516;2023-11-21T03:30:28;170.68;;;91.75;;
74291;SDS011;62687;55.738;37.516;2023-11-21T03:34:23;164.00;;;91.03;;
74291;SDS011;62687;55.738;37.516;2023-11-21T03:38:11;165.35;;;90.40;;
74291;SDS011;62687;55.738;37.516;2023-11-21T03:41:58;160.85;;;90.80;;
74291;SDS011;62687;55.738;37.516;2023-11-21T03:45:45;171.80;;;92.85;;
74291;SDS011;62687;55.738;37.516;2023-11-21T03:49:32;155.63;;;85.25;;
74291;SDS011;62687;55.738;37.516;2023-11-21T03:53:19;171.75;;;95.18;;
74291;SDS011;62687;55.738;37.516;2023-11-21T03:57:06;160.38;;;91.20;;
74291;SDS011;62687;55.738;37.516;2023-11-21T04:00:53;156.93;;;89.00;;
74291;SDS011;62687;55.738;37.516;2023-11-21T04:04:40;158.10;;;88.85;;
74291;SDS011;62687;55.738;37.516;2023-11-21T04:08:27;153.45;;;88.53;;
74291;SDS011;62687;55.738;37.516;2023-11-21T04:12:14;180.75;;;93.93;;
74291;SDS011;62687;55.738;37.516;2023-11-21T04:16:01;198.07;;;100.22;;
74291;SDS011;62687;55.738;37.516;2023-11-21T04:19:48;197.82;;;100.20;;
74291;SDS011;62687;55.738;37.516;2023-11-21T04:23:35;172.90;;;91.25;;
74291;SDS011;62687;55.738;37.516;2023-11-21T04:27:22;167.88;;;92.03;;
74291;SDS011;62687;55.738;37.516;2023-11-21T04:31:08;192.65;;;97.35;;
74291;SDS011;62687;55.738;37.516;2023-11-21T04:34:56;185.30;;;94.88;;
74291;SDS011;62687;55.738;37.516;2023-11-21T04:38:43;188.13;;;99.10;;
74291;SDS011;62687;55.738;37.516;2023-11-21T04:42:30;197.02;;;99.82;;
74291;SDS011;62687;55.738;37.516;2023-11-21T04:46:16;199.88;;;101.90;;
74291;SDS011;62687;55.738;37.516;2023-11-21T04:50:03;208.60;;;105.43;;
74291;SDS011;62687;55.738;37.516;2023-11-21T04:53:51;196.02;;;104.07;;
74291;SDS011;62687;55.738;37.516;2023-11-21T04:57:38;176.02;;;92.47;;
74291;SDS011;62687;55.738;37.516;2023-11-21T05:01:26;174.77;;;92.78;;
74291;SDS011;62687;55.738;37.516;2023-11-21T05:05:13;174.43;;;97.30;;
74291;SDS011;62687;55.738;37.516;2023-11-21T05:09:01;171.40;;;91.03;;
74291;SDS011;62687;55.738;37.516;2023-11-21T05:12:51;165.20;;;79.10;;
74291;SDS011;62687;55.738;37.516;2023-11-21T05:16:42;153.82;;;84.97;;
74291;SDS011;62687;55.738;37.516;2023-11-21T05:20:31;160.98;;;89.28;;
74291;SDS011;62687;55.738;37.516;2023-11-21T05:24:19;166.10;;;87.18;;
74291;SDS011;62687;55.738;37.516;2023-11-21T05:28:07;170.27;;;87.45;;
74291;SDS011;62687;55.738;37.516;2023-11-21T05:31:54;166.20;;;78.78;;
74291;SDS011;62687;55.738;37.516;2023-11-21T05:35:42;162.32;;;87.10;;
74291;SDS011;62687;55.738;37.516;2023-11-21T05:39:29;169.98;;;82.63;;
74291;SDS011;62687;55.738;37.516;2023-11-21T05:43:17;167.60;;;89.93;;
74291;SDS011;62687;55.738;37.516;2023-11-21T05:47:04;169.38;;;87.72;;
74291;SDS011;62687;55.738;37.516;2023-11-21T05:50:51;182.88;;;91.13;;
74291;SDS011;62687;55.738;37.516;2023-11-21T05:54:39;172.32;;;87.70;;
74291;SDS011;62687;55.738;37.516;2023-11-21T05:58:27;178.52;;;88.97;;
74291;SDS011;62687;55.738;37.516;2023-11-21T06:02:17;177.48;;;85.78;;
74291;SDS011;62687;55.738;37.516;2023-11-21T06:06:04;159.20;;;81.65;;
74291;SDS011;62687;55.738;37.516;2023-11-21T06:09:51;201.32;;;95.38;;
74291;SDS011;62687;55.738;37.516;2023-11-21T06:13:39;178.27;;;87.95;;
74291;SDS011;62687;55.738;37.516;2023-11-21T06:17:26;194.20;;;96.28;;
74291;SDS011;62687;55.738;37.516;2023-11-21T06:21:13;193.85;;;95.70;;
74291;SDS011;62687;55.738;37.516;2023-11-21T06:25:00;247.18;;;110.00;;
74291;SDS011;62687;55.738;37.516;2023-11-21T06:28:48;285.65;;;117.07;;
74291;SDS011;62687;55.738;37.516;2023-11-21T06:32:36;278.85;;;117.10;;
74291;SDS011;62687;55.738;37.516;2023-11-21T06:36:23;282.75;;;118.63;;
74291;SDS011;62687;55.738;37.516;2023-11-21T06:40:10;352.35;;;123.93;;
74291;SDS011;62687;55.738;37.516;2023-11-21T06:43:58;275.50;;;112.80;;
74291;SDS011;62687;55.738;37.516;2023-11-21T06:47:47;296.17;;;118.30;;
74291;SDS011;62687;55.738;37.516;2023-11-21T06:51:34;388.67;;;146.75;;
74291;SDS011;62687;55.738;37.516;2023-11-21T06:55:22;349.95;;;134.25;;
74291;SDS011;62687;55.738;37.516;2023-11-21T06:59:09;378.40;;;138.52;;
74291;SDS011;62687;55.738;37.516;2023-11-21T07:02:56;342.88;;;133.55;;
74291;SDS011;62687;55.738;37.516;2023-11-21T07:06:42;275.55;;;117.15;;
74291;SDS011;62687;55.738;37.516;2023-11-21T07:10:29;243.10;;;104.22;;
74291;SDS011;62687;55.738;37.516;2023-11-21T07:14:16;227.15;;;104.00;;
74291;SDS011;62687;55.738;37.516;2023-11-21T07:18:03;211.52;;;99.22;;
74291;SDS011;62687;55.738;37.516;2023-11-21T07:21:50;207.77;;;96.78;;
74291;SDS011;62687;55.738;37.516;2023-11-21T07:25:37;195.48;;;91.80;;
74291;SDS011;62687;55.738;37.516;2023-11-21T07:29:24;210.00;;;96.38;;
74291;SDS011;62687;55.738;37.516;2023-11-21T07:33:11;196.15;;;85.15;;
74291;SDS011;62687;55.738;37.516;2023-11-21T07:36:58;183.75;;;90.53;;
74291;SDS011;62687;55.738;37.516;2023-11-21T07:40:45;164.50;;;86.32;;
74291;SDS011;62687;55.738;37.516;2023-11-21T07:44:33;175.10;;;87.15;;
74291;SDS011;62687;55.738;37.516;2023-11-21T07:48:20;188.55;;;92.68;;
74291;SDS011;62687;55.738;37.516;2023-11-21T07:52:07;173.15;;;87.05;;
74291;SDS011;62687;55.738;37.516;2023-11-21T07:55:54;189.73;;;95.90;;
74291;SDS011;62687;55.738;37.516;2023-11-21T07:59:41;181.95;;;94.13;;
74291;SDS011;62687;55.738;37.516;2023-11-21T08:03:29;167.57;;;88.93;;
74291;SDS011;62687;55.738;37.516;2023-11-21T08:07:17;192.02;;;92.93;;
74291;SDS011;62687;55.738;37.516;2023-11-21T08:11:05;167.88;;;93.43;;
74291;SDS011;62687;55.738;37.516;2023-11-21T08:14:55;161.70;;;82.80;;
74291;SDS011;62687;55.738;37.516;2023-11-21T08:18:47;188.18;;;93.05;;
74291;SDS011;62687;55.738;37.516;2023-11-21T08:22:34;157.93;;;85.55;;
74291;SDS011;62687;55.738;37.516;2023-11-21T08:26:21;152.75;;;81.85;;
74291;SDS011;62687;55.738;37.516;2023-11-21T08:30:08;165.95;;;87.07;;
74291;SDS011;62687;55.738;37.516;2023-11-21T08:33:56;156.55;;;86.13;;
74291;SDS011;62687;55.738;37.516;2023-11-21T08:37:43;153.40;;;84.57;;
74291;SDS011;62687;55.738;37.516;2023-11-21T08:41:30;153.00;;;72.20;;
74291;SDS011;62687;55.738;37.516;2023-11-21T08:45:17;162.98;;;86.03;;
74291;SDS011;62687;55.738;37.516;2023-11-21T08:49:04;157.60;;;82.40;;
74291;SDS011;62687;55.738;37.516;2023-11-21T08:52:51;158.85;;;85.30;;
74291;SDS011;62687;55.738;37.516;2023-11-21T08:56:43;164.05;;;83.78;;
74291;SDS011;62687;55.738;37.516;2023-11-21T09:00:33;153.90;;;84.00;;
74291;SDS011;62687;55.738;37.516;2023-11-21T09:04:20;152.48;;;83.25;;
74291;SDS011;62687;55.738;37.516;2023-11-21T09:08:07;137.57;;;80.28;;
74291;SDS011;62687;55.738;37.516;2023-11-21T09:11:53;159.05;;;86.55;;
74291;SDS011;62687;55.738;37.516;2023-11-21T09:15:40;159.75;;;85.05;;
74291;SDS011;62687;55.738;37.516;2023-11-21T09:19:27;162.05;;;88.40;;
74291;SDS011;62687;55.738;37.516;2023-11-21T09:23:14;153.57;;;82.18;;
74291;SDS011;62687;55.738;37.516;2023-11-21T09:27:02;157.60;;;87.00;;
74291;SDS011;62687;55.738;37.516;2023-11-21T09:30:52;152.77;;;83.40;;
74291;SDS011;62687;55.738;37.516;2023-11-21T09:34:39;154.02;;;85.03;;
74291;SDS011;62687;55.738;37.516;2023-11-21T09:38:27;154.75;;;89.78;;
74291;SDS011;62687;55.738;37.516;2023-11-21T09:42:16;152.27;;;83.40;;
74291;SDS011;62687;55.738;37.516;2023-11-21T09:46:04;137.38;;;77.25;;
74291;SDS011;62687;55.738;37.516;2023-11-21T09:49:54;155.90;;;82.75;;
74291;SDS011;62687;55.738;37.516;2023-11-21T09:53:41;154.10;;;83.93;;
74291;SDS011;62687;55.738;37.516;2023-11-21T09:57:31;161.18;;;84.00;;
74291;SDS011;62687;55.738;37.516;2023-11-21T10:01:18;169.35;;;87.63;;
74291;SDS011;62687;55.738;37.516;2023-11-21T10:05:06;172.90;;;92.53;;
74291;SDS011;62687;55.738;37.516;2023-11-21T10:08:53;160.77;;;84.30;;
74291;SDS011;62687;55.738;37.516;2023-11-21T10:12:40;176.63;;;91.72;;
74291;SDS011;62687;55.738;37.516;2023-11-21T10:16:29;157.15;;;83.10;;
74291;SDS011;62687;55.738;37.516;2023-11-21T10:20:23;159.68;;;88.38;;
74291;SDS011;62687;55.738;37.516;2023-11-21T10:24:12;175.40;;;92.55;;
74291;SDS011;62687;55.738;37.516;2023-11-21T10:27:59;176.45;;;90.43;;
74291;SDS011;62687;55.738;37.516;2023-11-21T10:31:48;156.00;;;84.55;;
74291;SDS011;62687;55.738;37.516;2023-11-21T10:35:54;152.68;;;83.20;;
74291;SDS011;62687;55.738;37.516;2023-11-21T10:39:41;169.40;;;87.90;;
74291;SDS011;62687;55.738;37.516;2023-11-21T10:43:30;154.10;;;83.85;;
74291;SDS011;62687;55.738;37.516;2023-11-21T10:47:17;160.98;;;85.97;;
74291;SDS011;62687;55.738;37.516;2023-11-21T10:51:07;158.27;;;88.68;;
74291;SDS011;62687;55.738;37.516;2023-11-21T10:55:00;144.98;;;84.15;;
74291;SDS011;62687;55.738;37.516;2023-11-21T10:58:48;156.80;;;86.68;;
74291;SDS011;62687;55.738;37.516;2023-11-21T11:02:35;161.30;;;85.65;;
74291;SDS011;62687;55.738;37.516;2023-11-21T11:06:22;150.75;;;83.68;;
74291;SDS011;62687;55.738;37.516;2023-11-21T11:10:11;146.68;;;80.90;;
74291;SDS011;62687;55.738;37.516;2023-11-21T11:13:58;133.90;;;79.53;;
74291;SDS011;62687;55.738;37.516;2023-11-21T11:17:46;136.38;;;79.32;;
74291;SDS011;62687;55.738;37.516;2023-11-21T11:25:30;141.07;;;78.40;;
74291;SDS011;62687;55.738;37.516;2023-11-21T11:37:16;156.65;;;85.97;;
74291;SDS011;62687;55.738;37.516;2023-11-21T11:41:03;161.55;;;87.47;;
74291;SDS011;62687;55.738;37.516;2023-11-21T11:44:52;147.05;;;82.35;;
74291;SDS011;62687;55.738;37.516;2023-11-21T11:48:39;153.68;;;83.68;;
74291;SDS011;62687;55.738;37.516;2023-11-21T11:52:36;147.10;;;77.85;;
74291;SDS011;62687;55.738;37.516;2023-11-21T11:56:30;138.77;;;75.65;;
74291;SDS011;62687;55.738;37.516;2023-11-21T12:08:05;163.27;;;83.55;;
74291;SDS011;62687;55.738;37.516;2023-11-21T12:11:52;168.18;;;87.65;;
74291;SDS011;62687;55.738;37.516;2023-11-21T12:15:40;163.93;;;84.80;;
74291;SDS011;62687;55.738;37.516;2023-11-21T12:19:27;156.23;;;83.63;;
74291;SDS011;62687;55.738;37.516;2023-11-21T12:23:14;161.00;;;87.45;;
74291;SDS011;62687;55.738;37.516;2023-11-21T12:27:01;154.07;;;82.40;;
74291;SDS011;62687;55.738;37.516;2023-11-21T12:30:50;149.60;;;81.45;;
74291;SDS011;62687;55.738;37.516;2023-11-21T12:34:37;152.60;;;79.97;;
74291;SDS011;62687;55.738;37.516;2023-11-21T12:38:24;159.32;;;83.32;;
74291;SDS011;62687;55.738;37.516;2023-11-21T12:42:12;153.48;;;82.97;;
74291;SDS011;62687;55.738;37.516;2023-11-21T12:46:05;159.90;;;84.65;;
74291;SDS011;62687;55.738;37.516;2023-11-21T12:49:53;160.40;;;85.75;;
74291;SDS011;62687;55.738;37.516;2023-11-21T12:53:44;154.20;;;83.53;;
74291;SDS011;62687;55.738;37.516;2023-11-21T12:57:33;157.55;;;84.40;;
74291;SDS011;62687;55.738;37.516;2023-11-21T13:01:20;157.45;;;84.85;;
74291;SDS011;62687;55.738;37.516;2023-11-21T13:05:09;148.48;;;82.97;;
74291;SDS011;62687;55.738;37.516;2023-11-21T13:08:56;150.98;;;83.45;;
74291;SDS011;62687;55.738;37.516;2023-11-21T13:12:46;149.93;;;83.55;;
74291;SDS011;62687;55.738;37.516;2023-11-21T13:16:33;154.73;;;85.70;;
74291;SDS011;62687;55.738;37.516;2023-11-21T13:20:20;141.35;;;79.85;;
74291;SDS011;62687;55.738;37.516;2023-11-21T13:24:07;140.70;;;80.25;;
74291;SDS011;62687;55.738;37.516;2023-11-21T13:31:43;160.40;;;85.45;;
74291;SDS011;62687;55.738;37.516;2023-11-21T13:35:30;152.95;;;86.75;;
74291;SDS011;62687;55.738;37.516;2023-11-21T13:39:18;150.27;;;81.82;;
74291;SDS011;62687;55.738;37.516;2023-11-21T13:43:10;153.82;;;85.68;;
74291;SDS011;62687;55.738;37.516;2023-11-21T13:47:10;156.60;;;84.75;;
74291;SDS011;62687;55.738;37.516;2023-11-21T13:51:06;160.02;;;83.32;;
74291;SDS011;62687;55.738;37.516;2023-11-21T13:54:59;136.52;;;76.65;;
74291;SDS011;62687;55.738;37.516;2023-11-21T13:58:45;151.88;;;82.57;;
74291;SDS011;62687;55.738;37.516;2023-11-21T14:02:32;156.75;;;83.68;;
74291;SDS011;62687;55.738;37.516;2023-11-21T14:06:37;148.15;;;82.57;;
74291;SDS011;62687;55.738;37.516;2023-11-21T14:10:31;164.02;;;87.72;;
74291;SDS011;62687;55.738;37.516;2023-11-21T14:14:23;149.85;;;83.35;;
74291;SDS011;62687;55.738;37.516;2023-11-21T14:18:12;155.95;;;83.47;;
74291;SDS011;62687;55.738;37.516;2023-11-21T14:21:59;169.43;;;88.40;;
74291;SDS011;62687;55.738;37.516;2023-11-21T14:25:48;160.02;;;84.80;;
74291;SDS011;62687;55.738;37.516;2023-11-21T14:29:34;157.88;;;87.20;;
74291;SDS011;62687;55.738;37.516;2023-11-21T14:33:25;141.82;;;77.88;;
74291;SDS011;62687;55.738;37.516;2023-11-21T14:37:12;148.52;;;83.88;;
74291;SDS011;62687;55.738;37.516;2023-11-21T14:41:00;156.82;;;85.00;;
74291;SDS011;62687;55.738;37.516;2023-11-21T14:44:49;155.50;;;82.55;;
74291;SDS011;62687;55.738;37.516;2023-11-21T14:48:36;176.55;;;92.55;;
74291;SDS011;62687;55.738;37.516;2023-11-21T14:52:36;150.70;;;80.00;;
74291;SDS011;62687;55.738;37.516;2023-11-21T14:56:46;167.90;;;83.30;;
74291;SDS011;62687;55.738;37.516;2023-11-21T15:00:33;155.98;;;82.60;;
74291;SDS011;62687;55.738;37.516;2023-11-21T15:04:39;167.15;;;85.13;;
74291;SDS011;62687;55.738;37.516;2023-11-21T15:08:25;175.57;;;89.13;;
74291;SDS011;62687;55.738;37.516;2023-11-21T15:12:33;151.05;;;81.95;;
74291;SDS011;62687;55.738;37.516;2023-11-21T15:16:20;170.98;;;88.28;;
74291;SDS011;62687;55.738;37.516;2023-11-21T15:20:11;165.77;;;88.72;;
74291;SDS011;62687;55.738;37.516;2023-11-21T15:23:58;178.82;;;93.05;;
74291;SDS011;62687;55.738;37.516;2023-11-21T15:27:51;162.35;;;77.47;;
74291;SDS011;62687;55.738;37.516;2023-11-21T15:31:38;134.88;;;75.20;;
74291;SDS011;62687;55.738;37.516;2023-11-21T15:35:25;158.23;;;84.53;;
74291;SDS011;62687;55.738;37.516;2023-11-21T15:39:13;178.32;;;91.13;;
74291;SDS011;62687;55.738;37.516;2023-11-21T15:43:01;165.88;;;88.93;;
74291;SDS011;62687;55.738;37.516;2023-11-21T15:46:47;185.57;;;84.50;;
74291;SDS011;62687;55.738;37.516;2023-11-21T15:50:34;171.23;;;91.22;;
74291;SDS011;62687;55.738;37.516;2023-11-21T15:54:22;181.20;;;92.70;;
74291;SDS011;62687;55.738;37.516;2023-11-21T15:58:09;165.68;;;85.85;;
74291;SDS011;62687;55.738;37.516;2023-11-21T16:01:58;156.82;;;81.10;;
74291;SDS011;62687;55.738;37.516;2023-11-21T16:05:45;171.23;;;88.38;;
74291;SDS011;62687;55.738;37.516;2023-11-21T16:09:32;176.45;;;89.80;;
74291;SDS011;62687;55.738;37.516;2023-11-21T16:13:21;162.80;;;83.63;;
74291;SDS011;62687;55.738;37.516;2023-11-21T16:17:13;176.02;;;89.63;;
74291;SDS011;62687;55.738;37.516;2023-11-21T16:21:00;171.43;;;88.32;;
74291;SDS011;62687;55.738;37.516;2023-11-21T16:24:47;187.45;;;92.80;;
74291;SDS011;62687;55.738;37.516;2023-11-21T16:28:38;172.35;;;87.20;;
74291;SDS011;62687;55.738;37.516;2023-11-21T16:32:25;167.10;;;87.00;;
74291;SDS011;62687;55.738;37.516;2023-11-21T16:36:12;185.95;;;92.28;;
74291;SDS011;62687;55.738;37.516;2023-11-21T16:39:59;171.95;;;89.03;;
74291;SDS011;62687;55.738;37.516;2023-11-21T16:43:46;176.05;;;87.35;;
74291;SDS011;62687;55.738;37.516;2023-11-21T16:47:34;158.68;;;83.97;;
74291;SDS011;62687;55.738;37.516;2023-11-21T16:51:21;156.73;;;86.40;;
74291;SDS011;62687;55.738;37.516;2023-11-21T16:55:08;192.40;;;83.05;;
74291;SDS011;62687;55.738;37.516;2023-11-21T16:58:55;197.30;;;94.88;;
74291;SDS011;62687;55.738;37.516;2023-11-21T17:02:42;168.82;;;91.82;;
74291;SDS011;62687;55.738;37.516;2023-11-21T17:06:29;152.52;;;80.93;;
74291;SDS011;62687;55.738;37.516;2023-11-21T17:10:16;158.98;;;84.32;;
74291;SDS011;62687;55.738;37.516;2023-11-21T17:14:03;170.52;;;86.15;;
74291;SDS011;62687;55.738;37.516;2023-11-21T17:17:53;156.98;;;82.47;;
74291;SDS011;62687;55.738;37.516;2023-11-21T17:21:40;144.07;;;80.93;;
74291;SDS011;62687;55.738;37.516;2023-11-21T17:25:27;161.57;;;86.57;;
74291;SDS011;62687;55.738;37.516;2023-11-21T17:29:14;157.90;;;82.88;;
74291;SDS011;62687;55.738;37.516;2023-11-21T17:33:02;160.35;;;82.20;;
74291;SDS011;62687;55.738;37.516;2023-11-21T17:36:50;157.13;;;86.13;;
74291;SDS011;62687;55.738;37.516;2023-11-21T17:40:37;180.40;;;85.07;;
74291;SDS011;62687;55.738;37.516;2023-11-21T17:44:25;138.40;;;76.50;;
74291;SDS011;62687;55.738;37.516;2023-11-21T17:48:12;188.73;;;83.63;;
74291;SDS011;62687;55.738;37.516;2023-11-21T17:51:59;168.73;;;87.55;;
74291;SDS011;62687;55.738;37.516;2023-11-21T17:55:47;150.77;;;79.68;;
74291;SDS011;62687;55.738;37.516;2023-11-21T17:59:34;156.55;;;80.63;;
74291;SDS011;62687;55.738;37.516;2023-11-21T18:03:22;181.15;;;93.70;;
74291;SDS011;62687;55.738;37.516;2023-11-21T18:07:10;177.73;;;89.90;;
74291;SDS011;62687;55.738;37.516;2023-11-21T18:10:58;184.77;;;90.45;;
74291;SDS011;62687;55.738;37.516;2023-11-21T18:14:45;166.77;;;86.72;;
74291;SDS011;62687;55.738;37.516;2023-11-21T18:18:32;192.75;;;95.97;;
74291;SDS011;62687;55.738;37.516;2023-11-21T18:22:20;178.82;;;86.90;;
74291;SDS011;62687;55.738;37.516;2023-11-21T18:26:07;189.40;;;94.63;;
74291;SDS011;62687;55.738;37.516;2023-11-21T18:29:54;189.60;;;95.57;;
74291;SDS011;62687;55.738;37.516;2023-11-21T18:33:42;186.05;;;94.38;;
74291;SDS011;62687;55.738;37.516;2023-11-21T18:37:29;195.93;;;97.25;;
74291;SDS011;62687;55.738;37.516;2023-11-21T18:41:22;187.35;;;97.75;;
74291;SDS011;62687;55.738;37.516;2023-11-21T18:45:11;180.75;;;95.07;;
74291;SDS011;62687;55.738;37.516;2023-11-21T18:48:58;223.77;;;107.18;;
74291;SDS011;62687;55.738;37.516;2023-11-21T18:52:46;173.50;;;90.60;;
74291;SDS011;62687;55.738;37.516;2023-11-21T18:56:33;187.18;;;95.05;;
74291;SDS011;62687;55.738;37.516;2023-11-21T19:00:20;148.45;;;85.10;;
74291;SDS011;62687;55.738;37.516;2023-11-21T19:04:07;158.05;;;87.50;;
74291;SDS011;62687;55.738;37.516;2023-11-21T19:07:55;177.05;;;89.97;;
74291;SDS011;62687;55.738;37.516;2023-11-21T19:11:42;152.82;;;84.50;;
74291;SDS011;62687;55.738;37.516;2023-11-21T19:15:29;168.50;;;90.03;;
74291;SDS011;62687;55.738;37.516;2023-11-21T19:19:16;162.27;;;90.32;;
74291;SDS011;62687;55.738;37.516;2023-11-21T19:23:02;164.35;;;85.68;;
74291;SDS011;62687;55.738;37.516;2023-11-21T19:26:49;168.05;;;92.40;;
74291;SDS011;62687;55.738;37.516;2023-11-21T19:30:36;207.80;;;104.15;;
74291;SDS011;62687;55.738;37.516;2023-11-21T19:34:23;179.13;;;92.85;;
74291;SDS011;62687;55.738;37.516;2023-11-21T19:38:11;164.70;;;86.70;;
74291;SDS011;62687;55.738;37.516;2023-11-21T19:41:58;169.13;;;87.25;;
74291;SDS011;62687;55.738;37.516;2023-11-21T19:45:46;165.95;;;87.63;;
74291;SDS011;62687;55.738;37.516;2023-11-21T19:49:19;162.88;;;84.93;;
74291;SDS011;62687;55.738;37.516;2023-11-21T19:53:06;163.20;;;89.65;;
74291;SDS011;62687;55.738;37.516;2023-11-21T19:56:54;159.95;;;87.97;;
74291;SDS011;62687;55.738;37.516;2023-11-21T20:00:41;190.32;;;95.82;;
74291;SDS011;62687;55.738;37.516;2023-11-21T20:04:27;176.02;;;93.60;;
74291;SDS011;62687;55.738;37.516;2023-11-21T20:08:16;177.07;;;94.32;;
74291;SDS011;62687;55.738;37.516;2023-11-21T20:12:03;160.63;;;88.10;;
74291;SDS011;62687;55.738;37.516;2023-11-21T20:15:50;174.63;;;96.95;;
74291;SDS011;62687;55.738;37.516;2023-11-21T20:19:39;159.63;;;87.32;;
74291;SDS011;62687;55.738;37.516;2023-11-21T20:23:26;182.82;;;101.03;;
74291;SDS011;62687;55.738;37.516;2023-11-21T20:27:13;165.68;;;90.00;;
74291;SDS011;62687;55.738;37.516;2023-11-21T20:31:00;190.95;;;92.93;;
74291;SDS011;62687;55.738;37.516;2023-11-21T20:34:49;174.98;;;81.72;;
74291;SDS011;62687;55.738;37.516;2023-11-21T20:38:36;171.05;;;78.20;;
74291;SDS011;62687;55.738;37.516;2023-11-21T20:42:23;171.77;;;88.95;;
74291;SDS011;62687;55.738;37.516;2023-11-21T20:46:09;180.50;;;94.07;;
74291;SDS011;62687;55.738;37.516;2023-11-21T20:49:57;200.45;;;107.97;;
74291;SDS011;62687;55.738;37.516;2023-11-21T20:53:44;188.35;;;94.70;;
74291;SDS011;62687;55.738;37.516;2023-11-21T20:57:31;163.32;;;74.95;;
74291;SDS011;62687;55.738;37.516;2023-11-21T21:01:18;189.05;;;94.32;;
74291;SDS011;62687;55.738;37.516;2023-11-21T21:05:06;177.88;;;81.57;;
74291;SDS011;62687;55.738;37.516;2023-11-21T21:08:54;182.48;;;92.18;;
74291;SDS011;62687;55.738;37.516;2023-11-21T21:12:42;178.05;;;93.13;;
74291;SDS011;62687;55.738;37.516;2023-11-21T21:16:29;188.00;;;92.85;;
74291;SDS011;62687;55.738;37.516;2023-11-21T21:20:16;156.98;;;77.22;;
74291;SDS011;62687;55.738;37.516;2023-11-21T21:24:04;196.40;;;97.38;;
74291;SDS011;62687;55.738;37.516;2023-11-21T21:27:51;183.10;;;81.05;;
74291;SDS011;62687;55.738;37.516;2023-11-21T21:31:38;180.38;;;92.00;;
74291;SDS011;62687;55.738;37.516;2023-11-21T21:35:25;187.80;;;94.13;;
74291;SDS011;62687;55.738;37.516;2023-11-21T21:39:12;183.77;;;90.38;;
74291;SDS011;62687;55.738;37.516;2023-11-21T21:42:59;195.55;;;99.63;;
74291;SDS011;62687;55.738;37.516;2023-11-21T21:46:46;183.15;;;93.75;;
74291;SDS011;62687;55.738;37.516;2023-11-21T21:50:33;197.32;;;94.68;;
74291;SDS011;62687;55.738;37.516;2023-11-21T21:54:20;196.60;;;97.82;;
74291;SDS011;62687;55.738;37.516;2023-11-21T21:58:07;185.63;;;93.10;;